sensor_id;sensor_type;location;lat;lon;timestamp;temperature;humidity
38265;DHT22;24062;47.480;8.768;2022-08-19T00:00:51;19.80;87.10
38265;DHT22;24062;47.480;8.768;2022-08-19T00:03:17;19.80;87.00
38265;DHT22;24062;47.480;8.768;2022-08-19T00:05:44;19.80;87.00
38265;DHT22;24062;47.480;8.768;2022-08-19T00:08:11;19.80;87.20
38265;DHT22;24062;47.480;8.768;2022-08-19T00:10:40;19.80;87.40
38265;DHT22;24062;47.480;8.768;2022-08-19T00:13:06;19.70;87.30
38265;DHT22;24062;47.480;8.768;2022-08-19T00:15:33;19.80;87.60
38265;DHT22;24062;47.480;8.768;2022-08-19T00:18:00;19.80;87.70
38265;DHT22;24062;47.480;8.768;2022-08-19T00:20:27;19.80;87.60
38265;DHT22;24062;47.480;8.768;2022-08-19T00:22:54;19.80;87.70
38265;DHT22;24062;47.480;8.768;2022-08-19T00:25:21;19.80;87.80
38265;DHT22;24062;47.480;8.768;2022-08-19T00:27:49;19.80;87.90
38265;DHT22;24062;47.480;8.768;2022-08-19T00:30:16;19.90;88.00
38265;DHT22;24062;47.480;8.768;2022-08-19T00:32:43;19.90;88.00
38265;DHT22;24062;47.480;8.768;2022-08-19T00:35:10;19.90;88.10
38265;DHT22;24062;47.480;8.768;2022-08-19T00:37:38;19.80;88.00
38265;DHT22;24062;47.480;8.768;2022-08-19T00:40:11;19.90;88.10
38265;DHT22;24062;47.480;8.768;2022-08-19T00:42:38;19.90;88.10
38265;DHT22;24062;47.480;8.768;2022-08-19T00:45:11;19.90;88.10
38265;DHT22;24062;47.480;8.768;2022-08-19T00:47:38;19.90;88.20
38265;DHT22;24062;47.480;8.768;2022-08-19T00:50:08;19.90;88.30
38265;DHT22;24062;47.480;8.768;2022-08-19T00:52:40;19.90;88.40
38265;DHT22;24062;47.480;8.768;2022-08-19T00:55:13;19.90;88.40
38265;DHT22;24062;47.480;8.768;2022-08-19T00:57:45;19.90;88.40
38265;DHT22;24062;47.480;8.768;2022-08-19T01:00:17;19.90;88.30
38265;DHT22;24062;47.480;8.768;2022-08-19T01:02:45;19.90;88.30
38265;DHT22;24062;47.480;8.768;2022-08-19T01:05:16;19.90;88.20
38265;DHT22;24062;47.480;8.768;2022-08-19T01:07:46;19.90;87.80
38265;DHT22;24062;47.480;8.768;2022-08-19T01:10:16;19.90;88.40
38265;DHT22;24062;47.480;8.768;2022-08-19T01:12:45;19.90;88.50
38265;DHT22;24062;47.480;8.768;2022-08-19T01:15:17;19.90;88.40
38265;DHT22;24062;47.480;8.768;2022-08-19T01:17:45;19.90;88.50
38265;DHT22;24062;47.480;8.768;2022-08-19T01:20:15;19.80;88.40
38265;DHT22;24062;47.480;8.768;2022-08-19T01:22:46;19.80;88.40
38265;DHT22;24062;47.480;8.768;2022-08-19T01:25:14;19.80;88.50
38265;DHT22;24062;47.480;8.768;2022-08-19T01:27:43;19.70;88.40
38265;DHT22;24062;47.480;8.768;2022-08-19T01:30:12;19.70;88.50
38265;DHT22;24062;47.480;8.768;2022-08-19T01:32:39;19.70;88.60
38265;DHT22;24062;47.480;8.768;2022-08-19T01:35:07;19.70;88.70
38265;DHT22;24062;47.480;8.768;2022-08-19T01:37:44;19.70;88.80
38265;DHT22;24062;47.480;8.768;2022-08-19T01:40:12;19.70;88.80
38265;DHT22;24062;47.480;8.768;2022-08-19T01:42:39;19.60;88.60
38265;DHT22;24062;47.480;8.768;2022-08-19T01:45:07;19.60;88.70
38265;DHT22;24062;47.480;8.768;2022-08-19T01:47:35;19.70;89.00
38265;DHT22;24062;47.480;8.768;2022-08-19T01:50:03;19.70;89.20
38265;DHT22;24062;47.480;8.768;2022-08-19T01:52:30;19.70;89.20
38265;DHT22;24062;47.480;8.768;2022-08-19T01:54:58;19.80;89.30
38265;DHT22;24062;47.480;8.768;2022-08-19T01:57:26;19.80;89.30
38265;DHT22;24062;47.480;8.768;2022-08-19T01:59:53;19.80;89.20
38265;DHT22;24062;47.480;8.768;2022-08-19T02:02:19;19.80;89.30
38265;DHT22;24062;47.480;8.768;2022-08-19T02:04:46;19.80;89.30
38265;DHT22;24062;47.480;8.768;2022-08-19T02:07:13;19.80;89.30
38265;DHT22;24062;47.480;8.768;2022-08-19T02:09:40;19.80;89.40
38265;DHT22;24062;47.480;8.768;2022-08-19T02:12:08;19.80;89.30
38265;DHT22;24062;47.480;8.768;2022-08-19T02:14:36;19.80;89.30
38265;DHT22;24062;47.480;8.768;2022-08-19T02:17:03;19.80;89.40
38265;DHT22;24062;47.480;8.768;2022-08-19T02:19:30;19.80;89.40
38265;DHT22;24062;47.480;8.768;2022-08-19T02:21:58;19.80;89.50
38265;DHT22;24062;47.480;8.768;2022-08-19T02:24:26;19.80;89.50
38265;DHT22;24062;47.480;8.768;2022-08-19T02:26:54;19.80;89.60
38265;DHT22;24062;47.480;8.768;2022-08-19T02:29:23;19.80;89.60
38265;DHT22;24062;47.480;8.768;2022-08-19T02:31:50;19.80;89.60
38265;DHT22;24062;47.480;8.768;2022-08-19T02:34:17;19.80;89.70
38265;DHT22;24062;47.480;8.768;2022-08-19T02:36:44;19.80;89.80
38265;DHT22;24062;47.480;8.768;2022-08-19T02:39:11;19.80;89.80
38265;DHT22;24062;47.480;8.768;2022-08-19T02:41:37;19.80;89.80
38265;DHT22;24062;47.480;8.768;2022-08-19T02:44:04;19.80;89.90
38265;DHT22;24062;47.480;8.768;2022-08-19T02:46:33;19.80;89.80
38265;DHT22;24062;47.480;8.768;2022-08-19T02:49:04;19.80;89.90
38265;DHT22;24062;47.480;8.768;2022-08-19T02:51:41;19.80;90.00
38265;DHT22;24062;47.480;8.768;2022-08-19T02:54:10;19.80;90.00
38265;DHT22;24062;47.480;8.768;2022-08-19T02:56:39;19.80;90.00
38265;DHT22;24062;47.480;8.768;2022-08-19T02:59:07;19.80;90.00
38265;DHT22;24062;47.480;8.768;2022-08-19T03:01:39;19.80;90.00
38265;DHT22;24062;47.480;8.768;2022-08-19T03:04:08;19.80;90.00
38265;DHT22;24062;47.480;8.768;2022-08-19T03:06:37;19.80;90.00
38265;DHT22;24062;47.480;8.768;2022-08-19T03:09:04;19.80;90.10
38265;DHT22;24062;47.480;8.768;2022-08-19T03:11:32;19.80;90.10
38265;DHT22;24062;47.480;8.768;2022-08-19T03:14:01;19.80;90.10
38265;DHT22;24062;47.480;8.768;2022-08-19T03:16:31;19.80;90.10
38265;DHT22;24062;47.480;8.768;2022-08-19T03:19:00;19.80;90.10
38265;DHT22;24062;47.480;8.768;2022-08-19T03:21:30;19.80;90.20
38265;DHT22;24062;47.480;8.768;2022-08-19T03:24:00;19.80;90.20
38265;DHT22;24062;47.480;8.768;2022-08-19T03:26:28;19.80;90.20
38265;DHT22;24062;47.480;8.768;2022-08-19T03:28:55;19.70;90.10
38265;DHT22;24062;47.480;8.768;2022-08-19T03:31:23;19.80;90.20
38265;DHT22;24062;47.480;8.768;2022-08-19T03:33:51;19.80;90.20
38265;DHT22;24062;47.480;8.768;2022-08-19T03:36:21;19.70;90.20
38265;DHT22;24062;47.480;8.768;2022-08-19T03:38:51;19.70;90.20
38265;DHT22;24062;47.480;8.768;2022-08-19T03:41:22;19.70;90.30
38265;DHT22;24062;47.480;8.768;2022-08-19T03:43:49;19.70;90.30
38265;DHT22;24062;47.480;8.768;2022-08-19T03:46:23;19.70;90.20
38265;DHT22;24062;47.480;8.768;2022-08-19T03:48:53;19.70;90.60
38265;DHT22;24062;47.480;8.768;2022-08-19T03:51:23;19.70;90.30
38265;DHT22;24062;47.480;8.768;2022-08-19T03:53:52;19.70;90.30
38265;DHT22;24062;47.480;8.768;2022-08-19T03:56:19;19.70;90.40
38265;DHT22;24062;47.480;8.768;2022-08-19T03:58:47;19.70;90.40
38265;DHT22;24062;47.480;8.768;2022-08-19T04:01:15;19.60;90.30
38265;DHT22;24062;47.480;8.768;2022-08-19T04:03:44;19.60;90.40
38265;DHT22;24062;47.480;8.768;2022-08-19T04:06:12;19.70;90.50
38265;DHT22;24062;47.480;8.768;2022-08-19T04:08:42;19.60;90.40
38265;DHT22;24062;47.480;8.768;2022-08-19T04:11:12;19.60;90.50
38265;DHT22;24062;47.480;8.768;2022-08-19T04:13:39;19.60;90.50
38265;DHT22;24062;47.480;8.768;2022-08-19T04:16:07;19.60;90.50
38265;DHT22;24062;47.480;8.768;2022-08-19T04:18:36;19.60;90.50
38265;DHT22;24062;47.480;8.768;2022-08-19T04:21:05;19.60;90.60
38265;DHT22;24062;47.480;8.768;2022-08-19T04:23:33;19.60;90.60
38265;DHT22;24062;47.480;8.768;2022-08-19T04:26:03;19.60;90.60
38265;DHT22;24062;47.480;8.768;2022-08-19T04:28:30;19.60;90.60
38265;DHT22;24062;47.480;8.768;2022-08-19T04:30:56;19.70;90.70
38265;DHT22;24062;47.480;8.768;2022-08-19T04:33:25;19.70;90.70
38265;DHT22;24062;47.480;8.768;2022-08-19T04:35:54;19.70;90.70
38265;DHT22;24062;47.480;8.768;2022-08-19T04:38:23;19.70;90.70
38265;DHT22;24062;47.480;8.768;2022-08-19T04:40:51;19.70;90.80
38265;DHT22;24062;47.480;8.768;2022-08-19T04:43:38;19.70;90.80
38265;DHT22;24062;47.480;8.768;2022-08-19T04:46:06;19.80;90.80
38265;DHT22;24062;47.480;8.768;2022-08-19T04:48:33;19.80;90.80
38265;DHT22;24062;47.480;8.768;2022-08-19T04:51:05;19.80;90.90
38265;DHT22;24062;47.480;8.768;2022-08-19T04:53:34;19.80;90.90
38265;DHT22;24062;47.480;8.768;2022-08-19T04:56:05;19.80;90.90
38265;DHT22;24062;47.480;8.768;2022-08-19T04:58:33;19.80;90.90
38265;DHT22;24062;47.480;8.768;2022-08-19T05:01:02;19.80;90.90
38265;DHT22;24062;47.480;8.768;2022-08-19T05:03:29;19.80;90.90
38265;DHT22;24062;47.480;8.768;2022-08-19T05:06:04;19.80;90.80
38265;DHT22;24062;47.480;8.768;2022-08-19T05:08:33;19.80;90.90
38265;DHT22;24062;47.480;8.768;2022-08-19T05:11:08;19.70;90.90
38265;DHT22;24062;47.480;8.768;2022-08-19T05:13:35;19.80;91.10
38265;DHT22;24062;47.480;8.768;2022-08-19T05:16:04;19.80;91.10
38265;DHT22;24062;47.480;8.768;2022-08-19T05:18:31;19.80;91.10
38265;DHT22;24062;47.480;8.768;2022-08-19T05:21:17;19.90;91.20
38265;DHT22;24062;47.480;8.768;2022-08-19T05:24:03;19.90;91.10
38265;DHT22;24062;47.480;8.768;2022-08-19T05:26:34;19.90;91.10
38265;DHT22;24062;47.480;8.768;2022-08-19T05:29:01;19.90;91.10
38265;DHT22;24062;47.480;8.768;2022-08-19T05:31:30;19.90;91.00
38265;DHT22;24062;47.480;8.768;2022-08-19T05:33:58;19.80;91.10
38265;DHT22;24062;47.480;8.768;2022-08-19T05:36:25;19.90;91.20
38265;DHT22;24062;47.480;8.768;2022-08-19T05:38:52;19.90;91.20
38265;DHT22;24062;47.480;8.768;2022-08-19T05:41:20;19.90;91.20
38265;DHT22;24062;47.480;8.768;2022-08-19T05:43:48;19.90;91.20
38265;DHT22;24062;47.480;8.768;2022-08-19T05:46:17;19.90;91.20
38265;DHT22;24062;47.480;8.768;2022-08-19T05:48:46;19.90;91.30
38265;DHT22;24062;47.480;8.768;2022-08-19T05:51:14;19.80;91.20
38265;DHT22;24062;47.480;8.768;2022-08-19T05:53:42;19.90;91.30
38265;DHT22;24062;47.480;8.768;2022-08-19T05:56:12;19.90;91.30
38265;DHT22;24062;47.480;8.768;2022-08-19T05:58:40;19.90;91.30
38265;DHT22;24062;47.480;8.768;2022-08-19T06:01:10;19.90;91.30
38265;DHT22;24062;47.480;8.768;2022-08-19T06:03:39;19.90;91.30
38265;DHT22;24062;47.480;8.768;2022-08-19T06:06:09;20.00;91.40
38265;DHT22;24062;47.480;8.768;2022-08-19T06:08:36;20.00;91.40
38265;DHT22;24062;47.480;8.768;2022-08-19T06:11:15;20.00;91.40
38265;DHT22;24062;47.480;8.768;2022-08-19T06:13:42;20.00;91.50
38265;DHT22;24062;47.480;8.768;2022-08-19T06:16:10;20.00;91.30
38265;DHT22;24062;47.480;8.768;2022-08-19T06:18:37;20.00;91.40
38265;DHT22;24062;47.480;8.768;2022-08-19T06:21:04;20.00;91.40
38265;DHT22;24062;47.480;8.768;2022-08-19T06:23:33;20.00;91.40
38265;DHT22;24062;47.480;8.768;2022-08-19T06:26:00;19.90;91.40
38265;DHT22;24062;47.480;8.768;2022-08-19T06:28:27;19.80;91.50
38265;DHT22;24062;47.480;8.768;2022-08-19T06:30:54;19.70;91.60
38265;DHT22;24062;47.480;8.768;2022-08-19T06:33:21;19.60;91.80
38265;DHT22;24062;47.480;8.768;2022-08-19T06:35:48;19.60;91.90
38265;DHT22;24062;47.480;8.768;2022-08-19T06:38:15;19.70;92.00
38265;DHT22;24062;47.480;8.768;2022-08-19T06:40:43;19.60;92.00
38265;DHT22;24062;47.480;8.768;2022-08-19T06:43:10;19.60;92.00
38265;DHT22;24062;47.480;8.768;2022-08-19T06:45:37;19.50;92.20
38265;DHT22;24062;47.480;8.768;2022-08-19T06:48:04;19.50;92.20
38265;DHT22;24062;47.480;8.768;2022-08-19T06:50:32;19.40;92.20
38265;DHT22;24062;47.480;8.768;2022-08-19T06:52:59;19.40;92.40
38265;DHT22;24062;47.480;8.768;2022-08-19T06:55:26;19.40;92.60
38265;DHT22;24062;47.480;8.768;2022-08-19T06:57:56;19.50;92.70
38265;DHT22;24062;47.480;8.768;2022-08-19T07:00:23;19.50;92.70
38265;DHT22;24062;47.480;8.768;2022-08-19T07:02:50;19.50;92.70
38265;DHT22;24062;47.480;8.768;2022-08-19T07:05:18;19.50;92.70
38265;DHT22;24062;47.480;8.768;2022-08-19T07:07:45;19.50;92.60
38265;DHT22;24062;47.480;8.768;2022-08-19T07:10:12;19.50;92.80
38265;DHT22;24062;47.480;8.768;2022-08-19T07:12:39;19.50;92.90
38265;DHT22;24062;47.480;8.768;2022-08-19T07:15:09;19.60;93.00
38265;DHT22;24062;47.480;8.768;2022-08-19T07:17:36;19.60;93.00
38265;DHT22;24062;47.480;8.768;2022-08-19T07:20:06;19.70;93.10
38265;DHT22;24062;47.480;8.768;2022-08-19T07:22:33;19.70;93.00
38265;DHT22;24062;47.480;8.768;2022-08-19T07:25:00;19.70;93.00
38265;DHT22;24062;47.480;8.768;2022-08-19T07:27:29;19.70;93.00
38265;DHT22;24062;47.480;8.768;2022-08-19T07:29:56;19.60;92.90
38265;DHT22;24062;47.480;8.768;2022-08-19T07:32:24;19.60;92.90
38265;DHT22;24062;47.480;8.768;2022-08-19T07:34:52;19.60;93.10
38265;DHT22;24062;47.480;8.768;2022-08-19T07:37:19;19.70;93.10
38265;DHT22;24062;47.480;8.768;2022-08-19T07:39:46;19.70;93.10
38265;DHT22;24062;47.480;8.768;2022-08-19T07:42:13;19.70;93.10
38265;DHT22;24062;47.480;8.768;2022-08-19T07:44:41;19.70;93.10
38265;DHT22;24062;47.480;8.768;2022-08-19T07:47:08;19.70;93.10
38265;DHT22;24062;47.480;8.768;2022-08-19T07:49:36;19.70;93.10
38265;DHT22;24062;47.480;8.768;2022-08-19T07:52:05;19.80;93.20
38265;DHT22;24062;47.480;8.768;2022-08-19T07:54:35;19.80;93.20
38265;DHT22;24062;47.480;8.768;2022-08-19T07:57:03;19.80;93.20
38265;DHT22;24062;47.480;8.768;2022-08-19T07:59:30;19.80;93.20
38265;DHT22;24062;47.480;8.768;2022-08-19T08:01:57;19.90;93.20
38265;DHT22;24062;47.480;8.768;2022-08-19T08:04:26;19.90;93.30
38265;DHT22;24062;47.480;8.768;2022-08-19T08:07:11;19.90;93.30
38265;DHT22;24062;47.480;8.768;2022-08-19T08:09:56;19.90;93.10
38265;DHT22;24062;47.480;8.768;2022-08-19T08:12:26;19.90;93.20
38265;DHT22;24062;47.480;8.768;2022-08-19T08:14:56;20.00;93.20
38265;DHT22;24062;47.480;8.768;2022-08-19T08:17:26;20.00;93.30
38265;DHT22;24062;47.480;8.768;2022-08-19T08:19:53;20.00;93.30
38265;DHT22;24062;47.480;8.768;2022-08-19T08:22:22;20.00;93.10
38265;DHT22;24062;47.480;8.768;2022-08-19T08:25:04;19.90;93.20
38265;DHT22;24062;47.480;8.768;2022-08-19T08:27:35;19.80;93.30
38265;DHT22;24062;47.480;8.768;2022-08-19T08:30:05;19.80;93.40
38265;DHT22;24062;47.480;8.768;2022-08-19T08:32:34;19.90;93.50
38265;DHT22;24062;47.480;8.768;2022-08-19T08:35:02;19.90;93.50
38265;DHT22;24062;47.480;8.768;2022-08-19T08:37:30;19.90;93.50
38265;DHT22;24062;47.480;8.768;2022-08-19T08:39:57;19.90;93.40
38265;DHT22;24062;47.480;8.768;2022-08-19T08:42:28;19.80;93.50
38265;DHT22;24062;47.480;8.768;2022-08-19T08:45:00;19.80;93.70
38265;DHT22;24062;47.480;8.768;2022-08-19T08:47:31;19.90;93.90
38265;DHT22;24062;47.480;8.768;2022-08-19T08:50:03;19.90;93.70
38265;DHT22;24062;47.480;8.768;2022-08-19T08:52:35;19.80;93.70
38265;DHT22;24062;47.480;8.768;2022-08-19T08:55:07;19.70;93.70
38265;DHT22;24062;47.480;8.768;2022-08-19T08:57:38;19.70;93.90
38265;DHT22;24062;47.480;8.768;2022-08-19T09:00:09;19.60;94.00
38265;DHT22;24062;47.480;8.768;2022-08-19T09:02:36;19.60;94.10
38265;DHT22;24062;47.480;8.768;2022-08-19T09:05:05;19.60;94.20
38265;DHT22;24062;47.480;8.768;2022-08-19T09:07:41;19.40;94.10
38265;DHT22;24062;47.480;8.768;2022-08-19T09:10:17;19.40;94.50
38265;DHT22;24062;47.480;8.768;2022-08-19T09:12:55;19.40;94.60
38265;DHT22;24062;47.480;8.768;2022-08-19T09:15:29;19.50;94.70
38265;DHT22;24062;47.480;8.768;2022-08-19T09:18:00;19.50;94.70
38265;DHT22;24062;47.480;8.768;2022-08-19T09:20:29;19.60;94.80
38265;DHT22;24062;47.480;8.768;2022-08-19T09:22:58;19.70;94.80
38265;DHT22;24062;47.480;8.768;2022-08-19T09:25:26;19.70;94.90
38265;DHT22;24062;47.480;8.768;2022-08-19T09:27:54;19.70;94.80
38265;DHT22;24062;47.480;8.768;2022-08-19T09:30:25;19.60;94.70
38265;DHT22;24062;47.480;8.768;2022-08-19T09:32:52;19.50;94.70
38265;DHT22;24062;47.480;8.768;2022-08-19T09:35:20;19.50;95.00
38265;DHT22;24062;47.480;8.768;2022-08-19T09:37:49;19.50;95.20
38265;DHT22;24062;47.480;8.768;2022-08-19T09:40:18;19.50;95.20
38265;DHT22;24062;47.480;8.768;2022-08-19T09:42:45;19.50;95.10
38265;DHT22;24062;47.480;8.768;2022-08-19T09:45:13;19.50;95.20
38265;DHT22;24062;47.480;8.768;2022-08-19T09:47:41;19.50;95.30
38265;DHT22;24062;47.480;8.768;2022-08-19T09:50:10;19.40;95.40
38265;DHT22;24062;47.480;8.768;2022-08-19T09:52:37;19.30;95.60
38265;DHT22;24062;47.480;8.768;2022-08-19T09:55:05;19.30;95.70
38265;DHT22;24062;47.480;8.768;2022-08-19T09:57:34;19.30;95.80
38265;DHT22;24062;47.480;8.768;2022-08-19T10:00:02;19.30;96.10
38265;DHT22;24062;47.480;8.768;2022-08-19T10:02:30;19.20;96.00
38265;DHT22;24062;47.480;8.768;2022-08-19T10:04:56;19.20;96.10
38265;DHT22;24062;47.480;8.768;2022-08-19T10:07:41;19.20;96.40
38265;DHT22;24062;47.480;8.768;2022-08-19T10:10:08;19.20;96.50
38265;DHT22;24062;47.480;8.768;2022-08-19T10:12:37;19.30;96.40
38265;DHT22;24062;47.480;8.768;2022-08-19T10:15:06;19.30;96.60
38265;DHT22;24062;47.480;8.768;2022-08-19T10:17:33;19.40;96.60
38265;DHT22;24062;47.480;8.768;2022-08-19T10:20:00;19.40;96.50
38265;DHT22;24062;47.480;8.768;2022-08-19T10:22:29;19.40;96.70
38265;DHT22;24062;47.480;8.768;2022-08-19T10:24:56;19.50;96.50
38265;DHT22;24062;47.480;8.768;2022-08-19T10:27:23;19.40;96.80
38265;DHT22;24062;47.480;8.768;2022-08-19T10:29:52;19.50;96.70
38265;DHT22;24062;47.480;8.768;2022-08-19T10:32:19;19.50;96.60
38265;DHT22;24062;47.480;8.768;2022-08-19T10:34:47;19.50;96.90
38265;DHT22;24062;47.480;8.768;2022-08-19T10:37:16;19.50;96.70
38265;DHT22;24062;47.480;8.768;2022-08-19T10:39:45;19.50;96.80
38265;DHT22;24062;47.480;8.768;2022-08-19T10:42:13;19.50;97.00
38265;DHT22;24062;47.480;8.768;2022-08-19T10:44:41;19.60;97.40
38265;DHT22;24062;47.480;8.768;2022-08-19T10:47:10;19.60;97.30
38265;DHT22;24062;47.480;8.768;2022-08-19T10:49:37;19.60;97.00
38265;DHT22;24062;47.480;8.768;2022-08-19T10:52:24;19.60;97.00
38265;DHT22;24062;47.480;8.768;2022-08-19T10:55:08;19.40;97.00
38265;DHT22;24062;47.480;8.768;2022-08-19T10:57:53;19.40;97.40
38265;DHT22;24062;47.480;8.768;2022-08-19T11:00:20;19.40;97.90
38265;DHT22;24062;47.480;8.768;2022-08-19T11:02:49;19.40;98.10
38265;DHT22;24062;47.480;8.768;2022-08-19T11:05:17;19.50;97.90
38265;DHT22;24062;47.480;8.768;2022-08-19T11:07:44;19.40;97.80
38265;DHT22;24062;47.480;8.768;2022-08-19T11:10:13;19.30;97.90
38265;DHT22;24062;47.480;8.768;2022-08-19T11:12:41;19.30;98.10
38265;DHT22;24062;47.480;8.768;2022-08-19T11:15:09;19.30;98.10
38265;DHT22;24062;47.480;8.768;2022-08-19T11:17:37;19.30;98.50
38265;DHT22;24062;47.480;8.768;2022-08-19T11:20:08;19.30;98.50
38265;DHT22;24062;47.480;8.768;2022-08-19T11:22:35;19.30;98.50
38265;DHT22;24062;47.480;8.768;2022-08-19T11:25:03;19.30;98.70
38265;DHT22;24062;47.480;8.768;2022-08-19T11:27:30;19.20;98.60
38265;DHT22;24062;47.480;8.768;2022-08-19T11:29:57;19.30;99.00
38265;DHT22;24062;47.480;8.768;2022-08-19T11:32:24;19.40;99.10
38265;DHT22;24062;47.480;8.768;2022-08-19T11:34:51;19.30;98.90
38265;DHT22;24062;47.480;8.768;2022-08-19T11:37:20;19.30;98.90
38265;DHT22;24062;47.480;8.768;2022-08-19T11:39:46;19.30;99.30
38265;DHT22;24062;47.480;8.768;2022-08-19T11:42:13;19.30;99.30
38265;DHT22;24062;47.480;8.768;2022-08-19T11:44:57;19.30;99.20
38265;DHT22;24062;47.480;8.768;2022-08-19T11:47:24;19.30;99.20
38265;DHT22;24062;47.480;8.768;2022-08-19T11:49:51;19.30;99.10
38265;DHT22;24062;47.480;8.768;2022-08-19T11:52:20;19.20;99.30
38265;DHT22;24062;47.480;8.768;2022-08-19T11:54:47;19.20;99.60
38265;DHT22;24062;47.480;8.768;2022-08-19T11:57:14;19.30;99.80
38265;DHT22;24062;47.480;8.768;2022-08-19T11:59:42;19.40;99.90
38265;DHT22;24062;47.480;8.768;2022-08-19T12:02:13;19.40;99.80
38265;DHT22;24062;47.480;8.768;2022-08-19T12:04:41;19.50;99.90
38265;DHT22;24062;47.480;8.768;2022-08-19T12:07:08;19.50;99.90
38265;DHT22;24062;47.480;8.768;2022-08-19T12:09:36;19.60;99.90
38265;DHT22;24062;47.480;8.768;2022-08-19T12:12:05;19.70;99.90
38265;DHT22;24062;47.480;8.768;2022-08-19T12:14:32;19.80;99.70
38265;DHT22;24062;47.480;8.768;2022-08-19T12:16:59;19.80;99.90
38265;DHT22;24062;47.480;8.768;2022-08-19T12:19:27;19.80;99.50
38265;DHT22;24062;47.480;8.768;2022-08-19T12:21:58;19.70;99.90
38265;DHT22;24062;47.480;8.768;2022-08-19T12:24:27;19.70;99.90
38265;DHT22;24062;47.480;8.768;2022-08-19T12:26:56;19.80;99.90
38265;DHT22;24062;47.480;8.768;2022-08-19T12:29:24;19.80;99.90
38265;DHT22;24062;47.480;8.768;2022-08-19T12:31:54;19.80;99.90
38265;DHT22;24062;47.480;8.768;2022-08-19T12:34:27;19.80;99.90
38265;DHT22;24062;47.480;8.768;2022-08-19T12:36:55;19.90;99.90
38265;DHT22;24062;47.480;8.768;2022-08-19T12:39:23;19.90;99.90
38265;DHT22;24062;47.480;8.768;2022-08-19T12:41:50;19.90;99.90
38265;DHT22;24062;47.480;8.768;2022-08-19T12:44:18;19.90;99.90
38265;DHT22;24062;47.480;8.768;2022-08-19T12:46:46;19.90;99.90
38265;DHT22;24062;47.480;8.768;2022-08-19T12:49:14;19.90;99.90
38265;DHT22;24062;47.480;8.768;2022-08-19T12:51:42;20.00;99.90
38265;DHT22;24062;47.480;8.768;2022-08-19T12:54:09;20.90;99.90
38265;DHT22;24062;47.480;8.768;2022-08-19T12:56:37;21.70;99.90
38265;DHT22;24062;47.480;8.768;2022-08-19T12:59:04;22.40;97.90
38265;DHT22;24062;47.480;8.768;2022-08-19T13:01:34;22.80;95.50
38265;DHT22;24062;47.480;8.768;2022-08-19T13:04:02;23.00;95.00
38265;DHT22;24062;47.480;8.768;2022-08-19T13:06:29;23.20;94.00
38265;DHT22;24062;47.480;8.768;2022-08-19T13:08:56;23.40;93.60
38265;DHT22;24062;47.480;8.768;2022-08-19T13:11:23;23.60;92.80
38265;DHT22;24062;47.480;8.768;2022-08-19T13:13:52;23.80;92.80
38265;DHT22;24062;47.480;8.768;2022-08-19T13:16:20;23.80;92.70
38265;DHT22;24062;47.480;8.768;2022-08-19T13:18:49;23.80;92.60
38265;DHT22;24062;47.480;8.768;2022-08-19T13:21:19;23.80;92.50
38265;DHT22;24062;47.480;8.768;2022-08-19T13:23:46;23.60;92.30
38265;DHT22;24062;47.480;8.768;2022-08-19T13:26:13;23.60;92.50
38265;DHT22;24062;47.480;8.768;2022-08-19T13:28:41;23.80;92.90
38265;DHT22;24062;47.480;8.768;2022-08-19T13:31:27;24.10;92.30
38265;DHT22;24062;47.480;8.768;2022-08-19T13:34:14;24.30;92.00
38265;DHT22;24062;47.480;8.768;2022-08-19T13:36:42;24.40;91.10
38265;DHT22;24062;47.480;8.768;2022-08-19T13:39:09;24.30;90.80
38265;DHT22;24062;47.480;8.768;2022-08-19T13:41:37;24.00;91.30
38265;DHT22;24062;47.480;8.768;2022-08-19T13:44:05;24.00;91.60
38265;DHT22;24062;47.480;8.768;2022-08-19T13:46:32;24.00;91.60
38265;DHT22;24062;47.480;8.768;2022-08-19T13:48:59;24.10;91.90
38265;DHT22;24062;47.480;8.768;2022-08-19T13:51:27;24.10;91.40
38265;DHT22;24062;47.480;8.768;2022-08-19T13:53:54;24.10;90.50
38265;DHT22;24062;47.480;8.768;2022-08-19T13:56:22;23.30;90.90
38265;DHT22;24062;47.480;8.768;2022-08-19T13:58:49;22.70;92.50
38265;DHT22;24062;47.480;8.768;2022-08-19T14:01:19;22.20;94.00
38265;DHT22;24062;47.480;8.768;2022-08-19T14:03:47;21.90;95.20
38265;DHT22;24062;47.480;8.768;2022-08-19T14:06:14;21.60;96.20
38265;DHT22;24062;47.480;8.768;2022-08-19T14:08:43;21.50;97.00
38265;DHT22;24062;47.480;8.768;2022-08-19T14:11:10;21.30;97.90
38265;DHT22;24062;47.480;8.768;2022-08-19T14:13:37;21.20;98.40
38265;DHT22;24062;47.480;8.768;2022-08-19T14:16:07;21.10;99.20
38265;DHT22;24062;47.480;8.768;2022-08-19T14:18:34;21.10;99.70
38265;DHT22;24062;47.480;8.768;2022-08-19T14:21:01;21.00;99.70
38265;DHT22;24062;47.480;8.768;2022-08-19T14:23:30;21.00;99.90
38265;DHT22;24062;47.480;8.768;2022-08-19T14:26:05;21.00;99.90
38265;DHT22;24062;47.480;8.768;2022-08-19T14:28:32;21.00;99.90
38265;DHT22;24062;47.480;8.768;2022-08-19T14:30:59;21.00;99.90
38265;DHT22;24062;47.480;8.768;2022-08-19T14:33:26;20.90;99.90
38265;DHT22;24062;47.480;8.768;2022-08-19T14:35:53;20.90;99.90
38265;DHT22;24062;47.480;8.768;2022-08-19T14:38:20;20.90;99.90
38265;DHT22;24062;47.480;8.768;2022-08-19T14:40:47;20.90;99.90
38265;DHT22;24062;47.480;8.768;2022-08-19T14:43:15;20.90;99.90
38265;DHT22;24062;47.480;8.768;2022-08-19T14:45:43;20.90;99.90
38265;DHT22;24062;47.480;8.768;2022-08-19T14:48:10;21.00;99.90
38265;DHT22;24062;47.480;8.768;2022-08-19T14:50:38;21.10;99.90
38265;DHT22;24062;47.480;8.768;2022-08-19T14:53:07;21.10;99.90
38265;DHT22;24062;47.480;8.768;2022-08-19T14:55:35;21.10;99.90
38265;DHT22;24062;47.480;8.768;2022-08-19T14:58:02;21.10;99.90
38265;DHT22;24062;47.480;8.768;2022-08-19T15:00:30;21.10;99.90
38265;DHT22;24062;47.480;8.768;2022-08-19T15:02:57;21.00;99.90
38265;DHT22;24062;47.480;8.768;2022-08-19T15:05:24;21.00;99.90
38265;DHT22;24062;47.480;8.768;2022-08-19T15:07:52;21.10;99.90
38265;DHT22;24062;47.480;8.768;2022-08-19T15:10:22;21.10;99.90
38265;DHT22;24062;47.480;8.768;2022-08-19T15:12:50;21.10;99.90
38265;DHT22;24062;47.480;8.768;2022-08-19T15:15:17;21.00;99.90
38265;DHT22;24062;47.480;8.768;2022-08-19T15:17:46;21.10;99.90
38265;DHT22;24062;47.480;8.768;2022-08-19T15:20:15;21.00;99.90
38265;DHT22;24062;47.480;8.768;2022-08-19T15:22:42;21.10;99.90
38265;DHT22;24062;47.480;8.768;2022-08-19T15:25:11;21.20;99.90
38265;DHT22;24062;47.480;8.768;2022-08-19T15:27:39;21.30;99.90
38265;DHT22;24062;47.480;8.768;2022-08-19T15:30:07;21.30;99.90
38265;DHT22;24062;47.480;8.768;2022-08-19T15:32:35;21.40;99.90
38265;DHT22;24062;47.480;8.768;2022-08-19T15:35:05;21.40;99.90
38265;DHT22;24062;47.480;8.768;2022-08-19T15:37:32;21.40;99.90
38265;DHT22;24062;47.480;8.768;2022-08-19T15:39:59;21.40;99.90